Time;durP1;ratioP1;P1;durP2;ratioP2;P2;SDS_P1;SDS_P2;PMS_P1;PMS_P2;Temp;Humidity;BMP_temperature;BMP_pressure;BME280_temperature;BME280_humidity;BME280_pressure;Samples;Min_cycle;Max_cycle;Signal;HPM_P1;HPM_P2
2021/07/28 00:00:15;;;;;;;4.45;4.15;;;23.30;99.90;;;;;;5068905;28;20265;-74
2021/07/28 00:02:43;;;;;;;4.65;4.35;;;23.10;99.90;;;;;;5068979;28;20203;-74
2021/07/28 00:05:11;;;;;;;4.97;4.57;;;23.10;99.90;;;;;;5068801;28;20211;-74
2021/07/28 00:07:37;;;;;;;4.30;4.05;;;23.10;99.90;;;;;;5068615;28;20215;-73
2021/07/28 00:10:05;;;;;;;5.18;4.78;;;23.10;99.90;;;;;;5068435;28;20239;-74
2021/07/28 00:12:33;;;;;;;4.72;4.32;;;23.20;99.90;;;;;;5069197;28;20273;-74
2021/07/28 00:15:00;;;;;;;4.35;4.00;;;23.20;99.90;;;;;;5068834;28;20239;-74
2021/07/28 00:17:27;;;;;;;4.68;4.25;;;23.10;99.90;;;;;;5068982;28;20223;-74
2021/07/28 00:19:57;;;;;;;4.57;4.18;;;23.10;99.90;;;;;;5068821;28;20276;-74
2021/07/28 00:25:09;;;;;;;5.05;4.57;;;23.20;99.90;;;;;;5068353;28;20198;-74
2021/07/28 00:27:37;;;;;;;5.03;4.28;;;23.20;99.90;;;;;;5068927;28;20208;-75
2021/07/28 00:30:08;;;;;;;4.80;4.45;;;23.10;99.90;;;;;;5069133;28;20243;-74
2021/07/28 00:32:35;;;;;;;4.65;4.35;;;23.10;99.90;;;;;;5068705;28;20223;-74
2021/07/28 00:35:02;;;;;;;4.55;4.25;;;23.10;99.90;;;;;;5068569;28;20276;-75
2021/07/28 00:37:28;;;;;;;5.25;4.88;;;23.10;99.90;;;;;;5068643;28;20211;-75
2021/07/28 00:39:57;;;;;;;5.22;4.18;;;23.20;99.90;;;;;;5068316;28;20478;-74
2021/07/28 00:42:23;;;;;;;6.90;4.53;;;23.10;99.90;;;;;;5068499;28;20257;-74
2021/07/28 00:44:51;;;;;;;4.60;4.20;;;23.10;99.90;;;;;;5068603;28;20203;-74
2021/07/28 00:47:18;;;;;;;5.10;4.60;;;23.10;99.90;;;;;;5068646;28;20638;-75
2021/07/28 00:49:45;;;;;;;4.85;4.35;;;23.00;99.90;;;;;;5068404;28;20257;-75
2021/07/28 00:52:12;;;;;;;5.20;4.35;;;23.00;99.90;;;;;;5068611;28;20280;-75
2021/07/28 00:54:39;;;;;;;5.60;4.70;;;23.00;99.90;;;;;;5068707;28;20297;-74
2021/07/28 00:57:07;;;;;;;5.03;4.50;;;23.00;99.90;;;;;;5068141;28;20820;-74
2021/07/28 00:59:33;;;;;;;5.95;5.32;;;22.90;99.90;;;;;;5068554;28;20254;-74
2021/07/28 01:02:01;;;;;;;4.63;4.28;;;22.90;99.90;;;;;;5068656;28;20203;-75
2021/07/28 01:04:29;;;;;;;5.00;4.45;;;22.90;99.90;;;;;;5068633;28;20240;-74
2021/07/28 01:06:56;;;;;;;7.45;4.35;;;22.90;99.90;;;;;;5068448;28;21003;-75
2021/07/28 01:09:23;;;;;;;4.72;4.35;;;22.90;99.90;;;;;;5068282;28;20239;-74
2021/07/28 01:11:50;;;;;;;5.38;4.25;;;22.80;99.90;;;;;;5068317;28;20283;-74
2021/07/28 01:14:17;;;;;;;4.47;4.28;;;22.80;99.90;;;;;;5068082;28;20235;-74
2021/07/28 01:16:47;;;;;;;5.90;4.90;;;22.80;99.90;;;;;;5068441;28;20310;-74
2021/07/28 01:19:19;;;;;;;5.63;5.05;;;22.80;99.90;;;;;;5069732;28;20207;-73
2021/07/28 01:21:48;;;;;;;7.40;4.95;;;22.80;99.90;;;;;;5072662;28;20253;-74
2021/07/28 01:24:17;;;;;;;4.80;4.50;;;22.80;99.90;;;;;;5072209;28;21011;-73
2021/07/28 01:26:44;;;;;;;4.95;4.55;;;22.70;99.90;;;;;;5071968;28;20207;-73
2021/07/28 01:29:11;;;;;;;5.47;4.60;;;22.70;99.90;;;;;;5072188;28;20243;-73
2021/07/28 01:31:40;;;;;;;5.40;4.53;;;22.60;99.90;;;;;;5072508;28;20256;-73
2021/07/28 01:34:07;;;;;;;5.05;4.63;;;22.60;99.90;;;;;;5071938;28;20242;-73
2021/07/28 01:36:35;;;;;;;5.30;4.80;;;22.60;99.90;;;;;;5072184;28;20211;-73
2021/07/28 01:39:03;;;;;;;4.65;4.28;;;22.60;99.90;;;;;;5071669;28;20207;-74
2021/07/28 01:41:31;;;;;;;5.22;4.88;;;22.50;99.90;;;;;;5071622;28;20246;-74
2021/07/28 01:43:57;;;;;;;4.97;4.60;;;22.50;99.90;;;;;;5071583;28;20286;-74
2021/07/28 01:46:24;;;;;;;5.35;4.95;;;22.50;99.90;;;;;;5071434;28;20269;-73
2021/07/28 01:48:51;;;;;;;5.07;4.78;;;22.50;99.90;;;;;;5071731;28;20238;-73
2021/07/28 01:51:17;;;;;;;5.38;4.93;;;22.50;99.90;;;;;;5071973;28;20724;-73
2021/07/28 01:53:44;;;;;;;5.00;4.60;;;22.40;99.90;;;;;;5071613;28;20259;-76
2021/07/28 01:56:11;;;;;;;4.32;4.00;;;22.50;99.90;;;;;;5071511;28;20234;-76
2021/07/28 01:58:42;;;;;;;5.25;4.85;;;22.50;99.90;;;;;;5071719;28;20580;-76
2021/07/28 02:01:08;;;;;;;4.82;4.53;;;22.50;99.90;;;;;;5071378;28;20592;-76
2021/07/28 02:03:35;;;;;;;4.30;4.00;;;22.40;99.90;;;;;;5071508;28;20208;-76
2021/07/28 02:06:01;;;;;;;5.30;4.70;;;22.50;99.90;;;;;;5071168;28;20662;-76
2021/07/28 02:08:28;;;;;;;5.20;4.75;;;22.40;99.90;;;;;;5071477;28;20680;-76
2021/07/28 02:10:54;;;;;;;5.00;4.60;;;22.40;99.90;;;;;;5071210;28;20208;-76
2021/07/28 02:13:23;;;;;;;5.20;4.80;;;22.40;99.90;;;;;;5071452;28;20614;-74
2021/07/28 02:15:51;;;;;;;4.57;4.28;;;22.40;99.90;;;;;;5071007;28;20800;-74
2021/07/28 02:18:18;;;;;;;4.45;4.05;;;22.30;99.90;;;;;;5070929;28;20259;-74
2021/07/28 02:20:44;;;;;;;5.65;4.85;;;22.30;99.90;;;;;;5071195;28;20210;-74
2021/07/28 02:23:11;;;;;;;4.80;4.47;;;22.30;99.90;;;;;;5070804;28;20608;-75
2021/07/28 02:25:38;;;;;;;5.05;4.65;;;22.30;99.90;;;;;;5071052;28;20296;-74
2021/07/28 02:28:04;;;;;;;4.90;4.60;;;22.30;99.90;;;;;;5070721;28;20222;-74
2021/07/28 02:30:31;;;;;;;4.53;4.22;;;22.30;99.90;;;;;;5070831;28;20231;-74
2021/07/28 02:32:59;;;;;;;6.63;4.47;;;22.30;99.90;;;;;;5070638;28;20658;-74
2021/07/28 02:35:26;;;;;;;6.05;5.03;;;22.30;99.90;;;;;;5070629;28;20215;-74
2021/07/28 02:37:52;;;;;;;5.20;4.90;;;22.30;99.90;;;;;;5070445;28;20208;-74
2021/07/28 02:40:20;;;;;;;5.35;4.95;;;22.30;99.90;;;;;;5069807;28;20722;-71
2021/07/28 02:42:48;;;;;;;4.60;4.30;;;22.20;99.90;;;;;;5070490;28;20211;-75
2021/07/28 02:45:16;;;;;;;4.80;4.40;;;22.20;99.90;;;;;;5070074;28;20225;-73
2021/07/28 02:47:42;;;;;;;5.25;4.57;;;22.10;99.90;;;;;;5065525;28;20207;-72
2021/07/28 02:50:12;;;;;;;4.68;4.38;;;22.20;99.90;;;;;;5066336;28;20238;-72
2021/07/28 02:52:38;;;;;;;6.30;4.47;;;22.00;99.90;;;;;;5066463;28;20259;-72
2021/07/28 02:55:06;;;;;;;4.68;4.38;;;22.10;99.90;;;;;;5066359;28;20266;-72
2021/07/28 02:57:33;;;;;;;7.03;4.93;;;22.00;99.90;;;;;;5066883;28;20658;-72
2021/07/28 03:00:00;;;;;;;4.85;4.45;;;21.90;99.90;;;;;;5066163;28;20578;-74
2021/07/28 03:02:27;;;;;;;4.25;3.95;;;22.00;99.90;;;;;;5066258;28;20208;-74
2021/07/28 03:04:54;;;;;;;4.80;4.50;;;21.90;99.90;;;;;;5066390;28;20214;-74
2021/07/28 03:07:22;;;;;;;4.55;4.25;;;21.90;99.90;;;;;;5066686;28;20204;-74
2021/07/28 03:09:48;;;;;;;4.78;4.43;;;22.00;99.90;;;;;;5065357;28;20265;-74
2021/07/28 03:12:15;;;;;;;5.10;4.77;;;22.00;99.90;;;;;;5065564;28;20961;-75
2021/07/28 03:14:42;;;;;;;5.32;4.95;;;22.10;99.90;;;;;;5065742;28;20267;-74
2021/07/28 03:17:08;;;;;;;4.88;4.47;;;22.10;99.90;;;;;;5065777;28;20709;-72
2021/07/28 03:19:35;;;;;;;5.00;4.60;;;22.20;99.90;;;;;;5068458;28;20664;-72
2021/07/28 03:22:01;;;;;;;4.80;4.40;;;22.10;99.90;;;;;;5068709;28;20231;-72
2021/07/28 03:24:30;;;;;;;5.07;4.68;;;21.90;99.90;;;;;;5068883;28;20226;-72
2021/07/28 03:26:56;;;;;;;4.63;4.27;;;21.70;99.90;;;;;;5069247;28;20207;-72
2021/07/28 03:29:23;;;;;;;5.57;4.72;;;21.50;99.90;;;;;;5069761;28;20257;-71
2021/07/28 03:31:50;;;;;;;5.10;4.70;;;21.30;99.90;;;;;;5069759;28;20210;-71
2021/07/28 03:34:17;;;;;;;5.07;4.77;;;21.20;99.90;;;;;;5069329;28;20214;-72
2021/07/28 03:36:43;;;;;;;5.20;4.90;;;21.20;99.90;;;;;;5069480;28;20243;-72
2021/07/28 03:39:10;;;;;;;4.97;4.67;;;21.30;99.90;;;;;;5069375;28;20249;-72
2021/07/28 03:41:38;;;;;;;5.23;4.77;;;21.30;99.90;;;;;;5068502;28;20292;-72
2021/07/28 03:44:05;;;;;;;5.10;4.80;;;21.30;99.90;;;;;;5069212;28;20670;-72
2021/07/28 03:46:32;;;;;;;6.10;4.83;;;21.30;99.90;;;;;;5069121;28;20211;-72
2021/07/28 03:48:58;;;;;;;5.07;4.63;;;21.40;99.90;;;;;;5069217;28;20252;-72
2021/07/28 03:51:25;;;;;;;4.87;4.57;;;21.50;99.90;;;;;;5069283;28;20284;-72
2021/07/28 03:53:52;;;;;;;4.95;4.55;;;21.60;99.90;;;;;;5069355;28;20216;-72
2021/07/28 03:56:22;;;;;;;4.82;4.43;;;21.70;99.90;;;;;;5069073;28;20308;-72
2021/07/28 03:58:52;;;;;;;4.72;4.32;;;21.70;99.90;;;;;;5069377;28;20198;-72
2021/07/28 04:01:18;;;;;;;5.00;4.70;;;21.90;99.90;;;;;;5068966;28;20207;-71
2021/07/28 04:03:45;;;;;;;4.78;4.47;;;21.90;99.90;;;;;;5068989;28;20222;-72
2021/07/28 04:06:12;;;;;;;4.57;4.28;;;21.90;99.90;;;;;;5069036;28;20290;-72
2021/07/28 04:08:38;;;;;;;4.53;4.17;;;21.50;99.90;;;;;;5068828;28;20231;-72
2021/07/28 04:11:05;;;;;;;4.40;4.10;;;21.20;99.90;;;;;;5068840;28;20223;-72
2021/07/28 04:13:31;;;;;;;4.87;4.47;;;21.20;99.90;;;;;;5068641;28;20740;-72
2021/07/28 04:15:59;;;;;;;5.00;4.60;;;21.00;99.90;;;;;;5068724;28;20312;-72
2021/07/28 04:18:26;;;;;;;4.83;4.43;;;20.90;99.90;;;;;;5068639;28;20887;-72
2021/07/28 04:20:52;;;;;;;5.03;4.63;;;21.10;99.90;;;;;;5068583;28;20609;-72
2021/07/28 04:23:19;;;;;;;4.80;4.50;;;21.20;99.90;;;;;;5068745;28;20211;-72
2021/07/28 04:25:46;;;;;;;4.80;4.40;;;21.40;99.90;;;;;;5068013;28;20737;-72
2021/07/28 04:28:12;;;;;;;4.23;4.03;;;21.60;99.90;;;;;;5068474;28;20207;-72
2021/07/28 04:30:39;;;;;;;4.45;4.15;;;21.70;99.90;;;;;;5068726;28;20206;-72
2021/07/28 04:33:07;;;;;;;7.13;5.22;;;21.70;99.90;;;;;;5068532;28;20269;-72
2021/07/28 04:35:34;;;;;;;5.88;5.20;;;21.60;99.90;;;;;;5068367;28;20763;-72
2021/07/28 04:38:01;;;;;;;4.80;4.40;;;21.60;99.90;;;;;;5068514;28;20205;-72
2021/07/28 04:40:28;;;;;;;5.00;4.50;;;21.70;99.90;;;;;;5068504;28;20808;-72
2021/07/28 04:42:54;;;;;;;5.28;4.88;;;21.80;99.90;;;;;;5068495;28;20206;-72
2021/07/28 04:45:21;;;;;;;5.37;4.80;;;21.70;99.90;;;;;;5068592;28;20621;-72
2021/07/28 04:47:47;;;;;;;5.20;4.80;;;21.60;99.90;;;;;;5068308;28;20207;-71
2021/07/28 04:50:18;;;;;;;5.30;4.93;;;21.30;99.90;;;;;;5068427;28;20203;-71
2021/07/28 04:52:45;;;;;;;5.13;4.80;;;21.10;99.90;;;;;;5068203;28;20276;-71
2021/07/28 04:55:13;;;;;;;5.30;4.90;;;21.10;99.90;;;;;;5068081;28;20300;-72
2021/07/28 04:57:40;;;;;;;5.53;4.97;;;21.20;99.90;;;;;;5068413;28;20583;-71
2021/07/28 05:00:08;;;;;;;5.47;5.07;;;21.40;99.90;;;;;;5068138;28;20237;-72
2021/07/28 05:02:34;;;;;;;5.10;4.70;;;21.60;99.90;;;;;;5068238;28;20261;-72
2021/07/28 05:05:01;;;;;;;6.15;5.75;;;21.40;99.90;;;;;;5067769;28;20203;-72
2021/07/28 05:07:29;;;;;;;5.43;5.00;;;21.50;99.90;;;;;;5068379;28;20265;-72
2021/07/28 05:09:55;;;;;;;5.37;4.97;;;21.50;99.90;;;;;;5067757;28;20239;-71
2021/07/28 05:12:22;;;;;;;6.40;5.40;;;21.60;99.90;;;;;;5068037;28;20215;-72
2021/07/28 05:14:48;;;;;;;5.87;5.47;;;21.50;99.90;;;;;;5068035;28;20684;-71
2021/07/28 05:17:15;;;;;;;5.20;4.90;;;21.50;99.90;;;;;;5067126;28;20695;-72
2021/07/28 05:19:42;;;;;;;5.55;5.15;;;21.60;99.90;;;;;;5065739;28;20215;-71
2021/07/28 05:22:09;;;;;;;5.47;5.07;;;21.60;99.90;;;;;;5068046;28;20276;-72
2021/07/28 05:24:37;;;;;;;5.40;4.90;;;21.50;99.90;;;;;;5068091;28;20262;-71
2021/07/28 05:27:03;;;;;;;5.63;5.03;;;21.50;99.90;;;;;;5067570;28;20658;-72
2021/07/28 05:29:30;;;;;;;5.83;5.33;;;21.60;99.90;;;;;;5068220;28;20207;-72
2021/07/28 05:31:57;;;;;;;5.45;5.00;;;21.70;99.90;;;;;;5067977;28;20239;-72
2021/07/28 05:34:23;;;;;;;4.60;4.25;;;21.80;99.90;;;;;;5067977;28;20203;-71
2021/07/28 05:36:52;;;;;;;5.27;4.87;;;21.80;99.90;;;;;;5067652;28;20650;-72
2021/07/28 05:39:18;;;;;;;5.23;4.80;;;21.50;99.90;;;;;;5067623;28;20299;-72
2021/07/28 05:41:46;;;;;;;5.13;4.67;;;21.30;99.90;;;;;;5067960;28;20260;-71
2021/07/28 05:44:13;;;;;;;5.30;4.90;;;21.00;99.90;;;;;;5067750;28;20273;-71
2021/07/28 05:46:39;;;;;;;5.73;5.33;;;21.00;99.90;;;;;;5068204;28;20246;-71
2021/07/28 05:49:06;;;;;;;5.53;5.13;;;21.00;99.90;;;;;;5067794;28;20254;-71
2021/07/28 05:51:32;;;;;;;4.60;4.20;;;21.00;99.90;;;;;;5067791;28;20713;-71
2021/07/28 05:53:59;;;;;;;5.00;4.57;;;20.90;99.90;;;;;;5067950;28;20235;-72
2021/07/28 05:56:28;;;;;;;5.20;4.80;;;21.00;99.90;;;;;;5067465;28;20227;-72
2021/07/28 05:58:56;;;;;;;6.43;5.90;;;21.10;99.90;;;;;;5067883;28;20231;-71
2021/07/28 06:01:22;;;;;;;5.50;5.10;;;21.30;99.90;;;;;;5067782;28;20261;-72
2021/07/28 06:03:49;;;;;;;4.80;4.40;;;21.40;99.90;;;;;;5067806;28;20203;-72
2021/07/28 06:06:15;;;;;;;4.57;4.27;;;21.50;99.90;;;;;;5070607;28;20246;-72
2021/07/28 06:08:42;;;;;;;4.93;4.63;;;21.60;99.90;;;;;;5071026;28;20238;-71
2021/07/28 06:11:09;;;;;;;5.38;4.93;;;21.70;99.90;;;;;;5071163;28;20561;-71
2021/07/28 06:13:35;;;;;;;4.97;4.67;;;21.80;99.90;;;;;;5071145;28;20223;-72
2021/07/28 06:16:03;;;;;;;5.18;4.68;;;21.90;99.90;;;;;;5071109;28;20270;-71
2021/07/28 06:18:30;;;;;;;5.38;5.07;;;22.00;99.90;;;;;;5071155;28;20227;-71
2021/07/28 06:20:57;;;;;;;5.30;4.90;;;22.10;99.90;;;;;;5071078;28;20231;-72
2021/07/28 06:23:23;;;;;;;5.40;4.47;;;22.00;99.90;;;;;;5070979;28;20235;-72
2021/07/28 06:25:50;;;;;;;5.05;4.70;;;21.90;99.90;;;;;;5070767;28;20235;-72
2021/07/28 06:28:16;;;;;;;5.07;4.67;;;21.80;99.90;;;;;;5071006;28;20289;-72
2021/07/28 06:30:43;;;;;;;5.17;4.70;;;21.60;99.90;;;;;;5070955;28;20207;-71
2021/07/28 06:33:11;;;;;;;6.07;5.40;;;21.60;99.90;;;;;;5070538;28;20250;-71
2021/07/28 06:35:37;;;;;;;4.80;4.40;;;21.50;99.90;;;;;;5070768;28;20227;-72
2021/07/28 06:38:04;;;;;;;5.77;5.30;;;21.40;99.90;;;;;;5070867;28;20243;-71
2021/07/28 06:40:31;;;;;;;5.73;5.03;;;21.30;99.90;;;;;;5070538;28;20284;-72
2021/07/28 06:42:57;;;;;;;8.13;4.97;;;21.30;99.90;;;;;;5070734;28;20604;-71
2021/07/28 06:45:24;;;;;;;5.50;5.10;;;21.30;99.90;;;;;;5070444;28;20242;-72
2021/07/28 06:47:51;;;;;;;5.27;4.80;;;21.20;99.90;;;;;;5070624;28;20204;-71
2021/07/28 06:50:20;;;;;;;5.07;4.77;;;21.20;99.90;;;;;;5070544;28;20242;-72
2021/07/28 06:52:47;;;;;;;5.73;5.30;;;21.10;99.90;;;;;;5070487;28;20224;-72
2021/07/28 06:55:14;;;;;;;5.67;5.17;;;21.10;99.90;;;;;;5070070;28;20674;-72
2021/07/28 06:57:40;;;;;;;6.27;5.63;;;21.10;99.90;;;;;;5070196;28;20235;-71
2021/07/28 07:00:07;;;;;;;6.20;5.60;;;21.00;99.90;;;;;;5070481;28;20219;-71
2021/07/28 07:02:34;;;;;;;5.47;5.07;;;21.00;99.90;;;;;;5070117;28;20211;-71
2021/07/28 07:05:01;;;;;;;5.83;5.40;;;20.90;99.90;;;;;;5070372;28;20207;-72
2021/07/28 07:07:29;;;;;;;5.90;5.50;;;20.80;99.90;;;;;;5070076;28;20219;-72
2021/07/28 07:09:56;;;;;;;6.17;5.57;;;20.70;99.90;;;;;;5070070;28;20292;-72
2021/07/28 07:12:22;;;;;;;6.17;4.90;;;20.70;99.90;;;;;;5069982;28;20685;-72
2021/07/28 07:14:49;;;;;;;4.80;4.50;;;20.70;99.90;;;;;;5070011;28;20223;-72
2021/07/28 07:17:16;;;;;;;5.27;4.87;;;20.70;99.90;;;;;;5068671;28;20698;-72
2021/07/28 07:19:43;;;;;;;5.17;4.67;;;20.80;99.90;;;;;;5069954;28;20208;-72
2021/07/28 07:22:10;;;;;;;5.40;5.00;;;20.90;99.90;;;;;;5069812;28;20207;-72
2021/07/28 07:24:38;;;;;;;5.50;5.20;;;20.80;99.90;;;;;;5069966;28;20249;-72
2021/07/28 07:27:05;;;;;;;5.43;4.93;;;20.70;99.90;;;;;;5069839;28;20203;-72
2021/07/28 07:29:33;;;;;;;5.30;4.67;;;20.60;99.90;;;;;;5069610;28;20203;-72
2021/07/28 07:32:00;;;;;;;4.70;4.40;;;20.50;99.90;;;;;;5069918;28;20203;-72
2021/07/28 07:34:26;;;;;;;4.53;4.23;;;20.30;99.90;;;;;;5069552;28;20203;-72
2021/07/28 07:36:55;;;;;;;5.37;4.87;;;20.30;99.90;;;;;;5069550;28;20235;-72
2021/07/28 07:39:24;;;;;;;6.13;5.07;;;20.40;99.90;;;;;;5069530;28;20207;-72
2021/07/28 07:41:52;;;;;;;5.17;4.47;;;20.50;99.90;;;;;;5069589;28;20226;-72
2021/07/28 07:44:18;;;;;;;4.50;4.10;;;20.60;99.90;;;;;;5069373;28;20239;-72
2021/07/28 07:46:45;;;;;;;5.10;4.60;;;20.70;99.90;;;;;;5069544;28;20229;-72
2021/07/28 07:49:12;;;;;;;5.20;4.70;;;20.60;99.90;;;;;;5069258;28;20261;-72
2021/07/28 07:51:38;;;;;;;6.07;5.23;;;20.60;99.90;;;;;;5069163;28;20262;-72
2021/07/28 07:54:05;;;;;;;5.07;4.57;;;20.60;99.90;;;;;;5069273;28;20229;-72
2021/07/28 07:56:31;;;;;;;5.17;4.57;;;20.80;99.90;;;;;;5068751;28;20296;-71
2021/07/28 07:58:59;;;;;;;4.30;4.00;;;21.10;99.90;;;;;;5069255;28;20239;-72
2021/07/28 08:01:26;;;;;;;4.50;4.10;;;21.10;99.90;;;;;;5068804;28;20231;-72
2021/07/28 08:03:52;;;;;;;5.67;5.17;;;20.90;99.90;;;;;;5068888;28;20677;-72
2021/07/28 08:06:19;;;;;;;5.40;4.73;;;20.80;99.90;;;;;;5069033;28;20211;-71
2021/07/28 08:08:46;;;;;;;4.60;4.30;;;20.80;99.90;;;;;;5068615;28;20690;-72
2021/07/28 08:11:13;;;;;;;4.83;4.03;;;20.60;99.90;;;;;;5068509;28;20547;-72
2021/07/28 08:13:41;;;;;;;4.60;4.30;;;20.60;99.90;;;;;;5068808;28;20234;-72
2021/07/28 08:16:13;;;;;;;4.73;4.30;;;20.50;99.90;;;;;;5068792;28;20227;-72
2021/07/28 08:18:40;;;;;;;4.67;4.37;;;20.50;99.90;;;;;;5069122;28;20215;-72
2021/07/28 08:21:09;;;;;;;4.90;4.50;;;20.40;99.90;;;;;;5068754;28;20257;-72
2021/07/28 08:23:36;;;;;;;4.93;4.53;;;20.50;99.90;;;;;;5068466;28;20635;-71
2021/07/28 08:26:02;;;;;;;4.47;4.17;;;20.70;99.90;;;;;;5068752;28;20231;-72
2021/07/28 08:28:29;;;;;;;4.30;4.00;;;20.90;99.90;;;;;;5068251;28;20257;-72
2021/07/28 08:30:56;;;;;;;4.53;4.23;;;21.10;99.90;;;;;;5068964;28;20207;-72
2021/07/28 08:33:25;;;;;;;4.60;4.30;;;21.30;99.90;;;;;;5068478;28;20239;-72
2021/07/28 08:35:51;;;;;;;4.50;4.20;;;21.30;99.90;;;;;;5068580;28;20610;-72
2021/07/28 08:38:21;;;;;;;4.97;4.07;;;21.20;99.90;;;;;;5068705;28;20290;-72
2021/07/28 08:40:55;;;;;;;4.47;4.17;;;21.30;99.90;;;;;;5068508;28;20241;-72
2021/07/28 08:43:24;;;;;;;3.90;3.70;;;21.60;99.90;;;;;;5068418;28;20200;-71
2021/07/28 08:45:51;;;;;;;4.53;4.00;;;21.80;99.90;;;;;;5068485;28;20211;-71
2021/07/28 08:48:18;;;;;;;3.73;3.53;;;21.80;99.90;;;;;;5068432;28;20388;-71
2021/07/28 08:50:47;;;;;;;4.30;4.00;;;21.90;99.90;;;;;;5068214;28;20231;-71
2021/07/28 08:53:14;;;;;;;4.30;3.90;;;22.10;99.90;;;;;;5068425;28;20203;-71
2021/07/28 08:55:41;;;;;;;4.00;3.80;;;22.20;99.90;;;;;;5068250;28;20264;-71
2021/07/28 08:58:09;;;;;;;4.50;4.15;;;22.30;99.90;;;;;;5068066;28;20231;-71
2021/07/28 09:00:42;;;;;;;4.85;3.78;;;22.60;99.90;;;;;;5068277;28;20227;-71
2021/07/28 09:03:09;;;;;;;4.00;3.80;;;22.70;99.90;;;;;;5068342;28;20609;-71
2021/07/28 09:05:40;;;;;;;3.65;3.45;;;22.80;99.90;;;;;;5067878;28;20681;-71
2021/07/28 09:08:20;;;;;;;3.28;3.08;;;23.00;99.90;;;;;;5068345;28;20290;-71
2021/07/28 09:10:50;;;;;;;3.55;3.35;;;23.10;99.90;;;;;;5067918;28;20729;-71
2021/07/28 09:13:35;;;;;;;6.82;3.53;;;22.90;99.90;;;;;;5067795;28;20724;-71
2021/07/28 09:16:04;;;;;;;4.28;3.97;;;22.80;99.90;;;;;;5068194;28;20255;-71
2021/07/28 09:18:33;;;;;;;3.50;3.30;;;22.60;99.90;;;;;;5067932;28;20617;-71
2021/07/28 09:21:01;;;;;;;3.63;3.40;;;22.50;99.90;;;;;;5067983;28;20994;-71
2021/07/28 09:23:40;;;;;;;3.30;3.10;;;22.60;99.90;;;;;;5068033;28;20207;-71
2021/07/28 09:26:33;;;;;;;3.58;3.28;;;22.60;99.90;;;;;;5068082;28;20195;-71
2021/07/28 09:29:05;;;;;;;3.40;3.20;;;22.70;99.90;;;;;;5067982;28;20213;-71
2021/07/28 09:31:36;;;;;;;3.97;3.60;;;22.80;99.90;;;;;;5067863;28;20211;-71
2021/07/28 09:34:29;;;;;;;3.70;3.40;;;22.90;99.90;;;;;;5068195;28;20663;-71
2021/07/28 09:36:57;;;;;;;3.83;3.63;;;23.00;99.90;;;;;;5068061;28;20272;-71
2021/07/28 09:39:25;;;;;;;4.30;3.90;;;22.90;99.90;;;;;;5068027;28;20261;-71
2021/07/28 09:41:53;;;;;;;3.75;3.45;;;23.10;99.90;;;;;;5071802;28;20208;-71
2021/07/28 09:44:28;;;;;;;3.83;3.53;;;23.20;99.90;;;;;;5071620;28;20203;-71
2021/07/28 09:47:04;;;;;;;3.60;3.30;;;23.30;99.90;;;;;;5071520;28;20672;-72
2021/07/28 09:49:31;;;;;;;3.55;3.13;;;23.40;99.90;;;;;;5071443;28;20195;-71
2021/07/28 09:51:57;;;;;;;3.53;3.33;;;23.50;99.90;;;;;;5071448;28;20233;-71
2021/07/28 09:54:29;;;;;;;3.83;3.63;;;23.30;99.90;;;;;;5071141;28;21062;-71
2021/07/28 09:56:57;;;;;;;3.67;3.35;;;23.20;99.90;;;;;;5071551;28;20277;-71
2021/07/28 09:59:23;;;;;;;3.83;3.55;;;23.30;99.90;;;;;;5071350;28;20204;-71
2021/07/28 10:01:51;;;;;;;3.65;3.35;;;23.30;99.90;;;;;;5071231;28;20730;-71
2021/07/28 10:04:19;;;;;;;3.53;3.33;;;23.30;99.90;;;;;;5071126;28;20235;-71
2021/07/28 10:06:48;;;;;;;3.50;3.30;;;23.40;99.90;;;;;;5071502;28;20332;-71
2021/07/28 10:09:17;;;;;;;4.60;3.97;;;23.40;99.90;;;;;;5071335;28;20238;-71
2021/07/28 10:11:47;;;;;;;3.95;3.75;;;23.30;99.90;;;;;;5071424;28;20223;-71
2021/07/28 10:14:17;;;;;;;4.00;3.70;;;23.40;99.90;;;;;;5071215;28;20223;-71
2021/07/28 10:16:44;;;;;;;4.55;4.20;;;23.40;99.90;;;;;;5070570;28;21058;-71
2021/07/28 10:19:11;;;;;;;4.88;3.45;;;23.30;99.90;;;;;;5071155;28;20307;-71
2021/07/28 10:21:39;;;;;;;4.65;3.75;;;23.30;99.90;;;;;;5071223;28;20269;-71
2021/07/28 10:24:09;;;;;;;4.50;3.53;;;23.30;99.90;;;;;;5071229;28;20352;-72
2021/07/28 10:26:38;;;;;;;3.78;3.33;;;23.40;99.90;;;;;;5070659;28;20283;-71
2021/07/28 10:29:09;;;;;;;3.58;3.00;;;23.30;99.90;;;;;;5070996;28;20208;-71
2021/07/28 10:31:45;;;;;;;3.50;3.30;;;23.30;99.90;;;;;;5070856;28;20207;-71
2021/07/28 10:34:22;;;;;;;3.33;3.13;;;23.20;99.90;;;;;;5071073;28;20206;-71
2021/07/28 10:36:52;;;;;;;3.40;3.20;;;23.20;99.90;;;;;;5070698;28;20223;-71
2021/07/28 10:39:39;;;;;;;3.42;2.95;;;23.30;99.90;;;;;;5070877;28;20208;-71
2021/07/28 10:42:06;;;;;;;3.20;3.00;;;23.20;99.90;;;;;;5070627;28;20205;-71
2021/07/28 10:45:06;;;;;;;5.13;3.30;;;23.40;99.90;;;;;;5070471;28;20606;-71
2021/07/28 10:47:41;;;;;;;3.50;3.30;;;23.50;99.90;;;;;;5070803;28;20195;-71
2021/07/28 10:50:30;;;;;;;3.53;3.22;;;23.50;99.90;;;;;;5070608;28;20197;-71
2021/07/28 10:52:57;;;;;;;3.40;3.10;;;23.50;99.90;;;;;;5070276;28;20261;-71
2021/07/28 10:55:25;;;;;;;3.70;3.40;;;23.60;99.90;;;;;;5070483;28;20208;-71
2021/07/28 10:58:25;;;;;;;2.85;2.65;;;23.50;99.90;;;;;;5070446;28;20273;-71
2021/07/28 11:00:58;;;;;;;3.20;3.00;;;23.50;99.90;;;;;;5070532;28;20241;-71
2021/07/28 11:03:38;;;;;;;3.15;2.95;;;23.60;99.90;;;;;;5070315;28;20214;-71
2021/07/28 11:06:21;;;;;;;3.15;2.95;;;23.50;99.90;;;;;;5070450;28;20203;-71
2021/07/28 11:08:48;;;;;;;3.28;3.00;;;23.60;99.90;;;;;;5070207;28;20665;-71
2021/07/28 11:11:23;;;;;;;3.40;3.20;;;23.80;99.90;;;;;;5070336;28;20195;-71
2021/07/28 11:13:50;;;;;;;3.20;2.90;;;23.80;99.20;;;;;;5070189;28;20230;-71
2021/07/28 11:16:18;;;;;;;3.20;3.00;;;23.70;99.70;;;;;;5070309;28;20251;-71
2021/07/28 11:18:46;;;;;;;3.40;3.13;;;23.80;99.90;;;;;;5069801;28;20239;-72
2021/07/28 11:21:15;;;;;;;6.07;5.47;;;23.70;99.90;;;;;;5069821;28;20689;-71
2021/07/28 11:23:45;;;;;;;4.82;4.43;;;23.70;99.90;;;;;;5069573;28;21018;-71
2021/07/28 11:26:21;;;;;;;3.47;2.90;;;23.60;99.60;;;;;;5070029;28;20287;-71
2021/07/28 11:28:50;;;;;;;3.75;3.20;;;23.60;99.50;;;;;;5069741;28;20192;-71
2021/07/28 11:31:27;;;;;;;3.17;2.97;;;23.70;99.70;;;;;;5070033;28;20296;-71
2021/07/28 11:34:03;;;;;;;3.22;3.03;;;23.80;99.90;;;;;;5069847;28;20192;-71
2021/07/28 11:36:29;;;;;;;3.45;3.05;;;23.80;99.90;;;;;;5069605;28;20231;-71
2021/07/28 11:38:56;;;;;;;3.33;3.13;;;23.90;99.50;;;;;;5069496;28;20308;-71
2021/07/28 11:41:23;;;;;;;3.88;3.58;;;23.80;99.50;;;;;;5069551;28;20233;-71
2021/07/28 11:43:56;;;;;;;3.92;3.63;;;23.80;99.90;;;;;;5069648;28;20214;-71
2021/07/28 11:46:24;;;;;;;3.90;3.60;;;24.00;99.90;;;;;;5069297;28;20594;-71
2021/07/28 11:48:56;;;;;;;3.47;3.28;;;23.90;99.90;;;;;;5069201;28;20263;-71
2021/07/28 11:51:25;;;;;;;3.92;3.40;;;23.90;99.90;;;;;;5068935;28;20702;-71
2021/07/28 11:53:53;;;;;;;3.80;3.53;;;24.00;99.90;;;;;;5069308;28;20299;-71
2021/07/28 11:56:20;;;;;;;3.63;3.42;;;23.80;99.90;;;;;;5068864;28;20731;-71
2021/07/28 11:58:48;;;;;;;3.95;3.60;;;23.70;99.90;;;;;;5068950;28;20237;-71
2021/07/28 12:01:22;;;;;;;4.20;3.40;;;23.80;99.90;;;;;;5068933;28;20203;-72
2021/07/28 12:03:51;;;;;;;3.58;3.28;;;23.90;99.90;;;;;;5068356;28;20195;-71
2021/07/28 12:06:30;;;;;;;4.00;3.80;;;24.00;99.90;;;;;;5069059;28;20203;-71
2021/07/28 12:09:09;;;;;;;3.60;3.40;;;24.10;99.90;;;;;;5068775;28;20862;-72
2021/07/28 12:11:50;;;;;;;3.65;3.45;;;24.10;99.90;;;;;;5068565;28;20187;-71
2021/07/28 12:14:28;;;;;;;3.63;3.33;;;24.30;99.90;;;;;;5068811;28;20729;-71
2021/07/28 12:16:57;;;;;;;3.00;2.80;;;24.30;99.90;;;;;;5068732;28;20226;-71
2021/07/28 12:19:27;;;;;;;3.40;3.20;;;24.50;99.90;;;;;;5068737;28;20326;-71
2021/07/28 12:21:56;;;;;;;5.40;3.70;;;24.60;99.90;;;;;;5068832;28;20308;-71
2021/07/28 12:24:42;;;;;;;4.78;3.95;;;24.40;99.90;;;;;;5068646;28;20316;-71
2021/07/28 12:27:37;;;;;;;4.43;4.13;;;24.40;99.90;;;;;;5068631;28;20276;-71
2021/07/28 12:30:10;;;;;;;4.57;3.63;;;24.60;99.90;;;;;;5068824;28;20234;-71
2021/07/28 12:32:39;;;;;;;3.55;3.25;;;24.60;99.90;;;;;;5068839;28;20244;-72
2021/07/28 12:35:27;;;;;;;3.92;3.63;;;24.40;99.90;;;;;;5068619;28;20242;-71
2021/07/28 12:38:22;;;;;;;3.72;3.33;;;24.30;99.90;;;;;;5068641;28;20222;-71
2021/07/28 12:40:54;;;;;;;3.30;3.10;;;24.10;99.90;;;;;;5032624;28;20207;-71
2021/07/28 12:43:22;;;;;;;3.72;3.53;;;24.00;99.90;;;;;;5068573;28;20307;-71
2021/07/28 12:45:54;;;;;;;2.80;2.70;;;24.10;99.90;;;;;;5068420;28;20231;-71
2021/07/28 12:48:22;;;;;;;3.38;3.17;;;24.20;99.90;;;;;;5068244;28;20618;-71
2021/07/28 12:50:50;;;;;;;2.97;2.78;;;24.30;99.90;;;;;;5068077;28;20223;-72
2021/07/28 12:53:16;;;;;;;3.55;3.25;;;24.40;99.90;;;;;;5068408;28;20257;-71
2021/07/28 12:55:43;;;;;;;3.38;2.75;;;24.30;99.90;;;;;;5068343;28;20207;-71
2021/07/28 12:58:10;;;;;;;3.67;3.40;;;24.30;99.90;;;;;;5068392;28;20235;-71